• Join FlightAware (Why Join?)
  • Login
  • US Flag 
02:58AM EDT


 

Airport Tracker/Info


-or-


 

Live Flight TrackerFlight Track Log ✈ SKW5550 ✈ 14-Oct-2013 ✈ KCOD - KDEN

Flight Track Log - Related Links

Times and Time Zones

All times are in EDT time to prevent confusion due to time zone crossing. See the SKW5550 flight status page for this flight to view local times or setup timezone preferences in your user account.

Time Position Orientation Groundspeed Altitude Reporting Facility
EDT Latitude Longitude Course Direction KTS MPH feet Rate Location/Type
10:56AM 44.5411 -108.9914 156° South 164 189 6,300  Level Salt Lake Center
10:57AM 44.3421 -108.8419 157° South  Level Estimated
10:57AM 44.5717 -108.9428 49° Northeast 180 207 8,400  Level Salt Lake Center
10:58AM 44.2424 -108.7763 155° Southeast  Level FlightAware Approximate
10:58AM 44.5122 -108.8906 148° Southeast 244 281 10,400  Level Salt Lake Center
10:59AM 44.1534 -108.6856 157° South  Level Estimated
10:59AM 44.4336 -108.8603 165° South 273 314 12,400  Level Salt Lake Center
11:00AM 44.0515 -108.6271 158° South  Level FlightAware Approximate
11:00AM 44.3567 -108.8042 152° Southeast 294 338 14,600  Level Salt Lake Center
11:01AM 43.9628 -108.5363 156° South  Level Estimated
11:01AM 44.2683 -108.7181 145° Southeast 317 365 17,400  Level Salt Lake Center
11:02AM 44.1922 -108.6475 146° Southeast 324 373 19,200 1,320 Climbing Salt Lake Center
11:03AM 44.1139 -108.5761 147° Southeast 333 383 20,200 1,140 Climbing Salt Lake Center
11:04AM 44.0292 -108.4994 147° Southeast 354 407 21,600 1,260 Climbing Salt Lake Center
11:05AM 43.9439 -108.4206 146° Southeast 367 422 22,800 1,140 Climbing Salt Lake Center
11:06AM 43.8569 -108.3403 146° Southeast 375 432 24,000 1,080 Climbing Salt Lake Center
11:07AM 43.7692 -108.2606 147° Southeast 378 435 25,100 1,020 Climbing Salt Lake Center
11:08AM 43.6633 -108.1625 146° Southeast 383 441 26,200 960 Climbing Salt Lake Center
11:09AM 43.5736 -108.0822 147° Southeast 387 445 27,200 900 Climbing Salt Lake Center
11:10AM 43.4839 -107.9994 146° Southeast 389 448 28,100 780 Climbing Salt Lake Center
11:11AM 43.3931 -107.9194 147° Southeast 388 447 28,800 600 Climbing Salt Lake Center
11:12AM 43.3017 -107.8378 147° Southeast 391 450 29,400 480 Climbing Salt Lake Center
11:13AM 43.2092 -107.7547 147° Southeast 398 458 29,800 480 Climbing Salt Lake Center
11:15AM 43.0956 -107.6536 147° Southeast 405 466 30,400 480 Climbing Salt Lake Center
11:16AM 43.0008 -107.5700 147° Southeast 406 467 30,900 240 Climbing Salt Lake Center
11:17AM 42.9078 -107.4883 147° Southeast 406 467 31,000  Climbing Salt Lake Center
11:18AM 42.7969 -107.3919 147° Southeast 419 482 31,000  Level Salt Lake Center
11:19AM 42.7017 -107.3064 147° Southeast 425 489 31,000  Level Salt Lake Center
11:20AM 42.6064 -107.2239 147° Southeast 425 489 31,000  Level Salt Lake Center
11:21AM 42.4931 -107.1367 150° Southeast 420 483 31,000  Level Salt Lake Center
11:22AM 42.3944 -107.0664 152° Southeast 418 481 31,000  Level Salt Lake Center
11:23AM 42.2803 -106.9853 152° Southeast 415 478 31,000  Level Denver Center
11:24AM 42.1831 -106.9153 152° Southeast 415 478 31,000  Level Denver Center
11:25AM 42.0686 -106.8344 152° Southeast 416 479 31,000  Level Denver Center
11:26AM 41.9700 -106.7658 153° Southeast 417 480 31,000 120 Level Denver Center
11:27AM 41.8564 -106.6839 152° Southeast 415 478 31,300 540 Climbing Denver Center
11:28AM 41.7583 -106.6164 153° Southeast 414 476 32,200 720 Climbing Denver Center
11:29AM 41.6494 -106.5400 152° Southeast 399 459 32,800 360 Climbing Denver Center
11:30AM 41.5592 -106.4772 153° Southeast 406 467 33,000 60 Climbing Denver Center
11:31AM 41.4450 -106.3975 152° Southeast 414 476 33,000 -180 Level Denver Center
11:32AM 41.3431 -106.3283 153° Southeast 426 490 32,700 -420 Descending Denver Center
11:33AM 41.2300 -106.2508 153° Southeast 438 504 32,200 -540 Descending Denver Center
11:34AM 41.1067 -106.1667 153° Southeast 445 512 31,600 -540 Descending Denver Center
11:35AM 41.0069 -106.0986 153° Southeast 386 444 31,100 -420 Descending Denver Center
11:36AM 40.9175 -106.0381 153° Southeast 354 407 30,800 -480 Descending Denver Center
11:37AM 40.8306 -105.9794 153° Southeast 351 404 30,200 -540 Descending Denver Center
11:38AM 40.7422 -105.9186 152° Southeast 356 410 29,700 -780 Descending Denver Center
11:39AM 40.6564 -105.8608 153° Southeast 351 404 28,600 -1,020 Descending Denver Center
11:40AM 40.5736 -105.8058 153° Southeast 340 391 27,600 -780 Descending Denver Center
11:41AM 40.4733 -105.7381 153° Southeast 337 388 27,000 -420 Descending Denver Center
11:42AM 40.3897 -105.6822 153° Southeast 339 390 26,800 -540 Descending Denver Center
11:43AM 40.3556 -105.5783 113° Southeast 347 399 26,000 -420 Descending Denver Center
11:44AM 40.4364 -105.5272 26° Northeast 341 392 26,000 -360 Level Denver Center
11:46AM 40.5047 -105.6086 318° Northwest 359 413 25,300 -840 Descending Denver Center
11:47AM 40.5400 -105.7306 291° West 360 414 24,300 -1,080 Descending Denver Center
11:48AM 40.5778 -105.8731 289° West 348 400 23,100 -1,140 Descending Denver Center
11:49AM 40.5939 -105.9883 280° West 330 380 22,000 -1,020 Descending Denver Center
11:50AM 40.5172 -106.0333 204° Southwest 330 380 21,000 -960 Descending Denver Center
11:51AM 40.4233 -106.0197 174° South 338 389 20,100 -540 Descending Denver Center
11:52AM 40.3389 -105.9942 167° South 318 366 20,000 -300 Descending Denver Center
11:53AM 40.3269 -105.8789 98° East 342 394 19,500 -540 Descending Denver Center
11:54AM 40.3767 -105.7339 66° East 363 418 19,000 -480 Descending Denver Center
11:55AM 40.3811 -105.6081 87° East 357 411 18,500 -720 Descending Denver Center
11:56AM 40.3628 -105.4844 101° East 347 399 17,500 -780 Descending Denver Center
11:57AM 40.3433 -105.3486 101° East 355 409 17,000 -1,260 Descending Denver Center
11:58AM 40.3253 -105.2183 100° East 346 398 15,000 -1,920 Descending Denver Center
11:59AM 40.3097 -105.0978 100° East 338 389 13,100 -960 Descending Denver Center
12:00PM 40.2939 -104.9817 100° East 306 352 13,100 -300 Level Denver Center
12:01PM 40.2786 -104.8817 101° East 284 327 12,600 -840 Descending Denver Center
12:02PM 40.2650 -104.7839 100° East 276 318 11,400 -840 Descending Denver Center
12:03PM 40.2486 -104.6806 102° East 271 312 10,900 -900 Descending Denver Center
12:04PM 40.1872 -104.6500 159° South 263 303 9,600 -960 Descending Denver Center
12:05PM 40.1156 -104.6608 187° South 243 280 9,000 -300 Descending Denver Center
12:06PM 40.0589 -104.6567 177° South 208 239 9,000 -480 Level Denver Center
12:07PM 39.9958 -104.6586 181° South 211 243 8,100 -1,020 Descending Denver Center
12:08PM 39.9403 -104.6589 180° South 201 231 7,000 -960 Descending Denver Center
12:09PM 39.8958 -104.6594 181° South 154 177 6,200 -780 Descending Denver Center
12:10PM 39.8556 -104.6594 180° South 143 165 5,400 -780 Descending Denver Center
12:12PM 39.8500 -104.6667 180° South  Level FlightAware Approximate
12:19PM 39.8617 -104.6732 180° South  Level Estimated